Terminal Aerodrome Forecast
Issued by NWS

Home | Current Version | Previous Version | Text Only | Print | Product List | Glossary On
Versions: 1 2 3 4 5 6 7 8 9 10 11 12 13 14 15
000
FTUS43 KIND 311100
TAFLAF
TAF
KLAF 311130Z 3112/0112 21006KT P6SM BKN090
     FM311700 21008KT P6SM SCT050 OVC080
     FM010000 19006KT 3SM -RASN SCT025 OVC050
     FM010400 17003KT 1 1/2SM -SN BR OVC015
     FM010800 10004KT 3/4SM -SN BR OVC008
      AMD LTD TO CLD VIS AND WIND TIL 311400=

USA.gov is the U.S. government's official web portal to all federal, state and local government web resources and services.